createdAt,value
2019-05-25T00:01:28.677Z,9.97
2019-05-25T00:03:59.409Z,9.30
2019-05-25T00:06:30.508Z,7.60
2019-05-25T00:09:01.176Z,8.47
2019-05-25T00:11:32.128Z,11.57
2019-05-25T00:16:32.790Z,9.97
2019-05-25T00:19:02.508Z,7.53
2019-05-25T00:21:33.414Z,8.43
2019-05-25T00:26:33.918Z,10.20
2019-05-25T00:31:32.134Z,11.07
2019-05-25T00:34:02.797Z,13.40
2019-05-25T00:36:33.778Z,9.17
2019-05-25T00:39:06.334Z,10.73
2019-05-25T00:41:35.901Z,10.13
2019-05-25T00:44:06.730Z,14.60
2019-05-25T00:49:04.918Z,13.37
2019-05-25T00:51:34.566Z,13.03
2019-05-25T00:54:05.473Z,11.20
2019-05-25T00:59:06.013Z,13.10
2019-05-25T01:01:34.253Z,10.60
2019-05-25T01:04:04.980Z,13.37
2019-05-25T01:06:35.718Z,13.50
2019-05-25T01:09:08.323Z,10.10
2019-05-25T01:11:39.008Z,10.80
2019-05-25T01:16:39.272Z,11.00
2019-05-25T01:19:08.908Z,15.37
2019-05-25T01:21:39.714Z,12.37
2019-05-25T01:24:07.958Z,14.17
2019-05-25T01:26:38.602Z,10.90
2019-05-25T01:31:38.754Z,11.83
2019-05-25T01:34:08.312Z,13.93
2019-05-25T01:36:38.888Z,12.33
2019-05-25T01:39:09.858Z,12.53
2019-05-25T01:41:40.386Z,11.30
2019-05-25T01:44:10.967Z,19.27
2019-05-25T01:46:41.613Z,13.77
2019-05-25T01:49:12.189Z,12.70
2019-05-25T01:51:42.619Z,13.87
2019-05-25T01:54:13.310Z,16.10
2019-05-25T01:56:42.773Z,19.47
2019-05-25T01:59:13.613Z,19.03
2019-05-25T02:01:41.849Z,19.10
2019-05-25T02:04:12.384Z,21.33
2019-05-25T02:09:12.443Z,19.20
2019-05-25T02:11:41.991Z,19.30
2019-05-25T02:14:12.705Z,21.00
2019-05-25T02:19:12.883Z,16.60
2019-05-25T02:24:10.798Z,17.43
2019-05-25T02:26:40.663Z,13.33
2019-05-25T02:29:11.321Z,14.27
2019-05-25T02:31:42.108Z,16.50
2019-05-25T02:34:12.677Z,17.67
2019-05-25T02:36:43.414Z,19.03
2019-05-25T02:39:13.988Z,15.93
2019-05-25T02:41:44.633Z,15.30
2019-05-25T02:44:15.418Z,16.97
2019-05-25T02:46:46.577Z,20.37
2019-05-25T02:49:16.198Z,17.67
2019-05-25T02:51:46.713Z,21.93
2019-05-25T02:54:15.009Z,15.33
2019-05-25T02:56:45.618Z,16.47
2019-05-25T03:01:45.878Z,15.03
2019-05-25T03:04:16.681Z,17.47
2019-05-25T03:06:47.544Z,17.33
2019-05-25T03:09:19.618Z,20.87
2019-05-25T03:14:21.859Z,17.30
2019-05-25T03:16:51.447Z,16.87
2019-05-25T03:19:22.242Z,16.60
2019-05-25T03:24:22.594Z,18.33
2019-05-25T03:26:50.748Z,17.53
2019-05-25T03:29:21.510Z,13.80
2019-05-25T03:34:21.685Z,16.63
2019-05-25T03:36:52.364Z,18.43
2019-05-25T03:39:23.053Z,17.30
2019-05-25T03:41:53.795Z,14.37
2019-05-25T03:44:24.539Z,19.20
2019-05-25T03:46:55.249Z,17.43
2019-05-25T03:51:55.515Z,17.20
2019-05-25T03:54:25.059Z,16.27
2019-05-25T03:56:55.741Z,15.23
2019-05-25T04:01:56.242Z,16.33
2019-05-25T04:04:24.545Z,16.97
2019-05-25T04:06:55.186Z,16.47
2019-05-25T04:09:25.991Z,16.13
2019-05-25T04:11:56.641Z,20.77
2019-05-25T04:14:24.939Z,16.50
2019-05-25T04:16:55.551Z,16.07
2019-05-25T04:19:26.266Z,18.00
2019-05-25T04:21:57.024Z,19.17
2019-05-25T04:24:27.603Z,15.33
2019-05-25T04:26:58.159Z,14.50
2019-05-25T04:29:28.937Z,19.00
2019-05-25T04:31:58.508Z,16.33
2019-05-25T04:34:29.134Z,14.57
2019-05-25T04:39:29.428Z,13.53
2019-05-25T04:41:57.714Z,14.93
2019-05-25T04:44:28.239Z,21.53
2019-05-25T04:49:26.092Z,18.63
2019-05-25T04:51:55.804Z,16.77
2019-05-25T04:54:26.408Z,16.80
2019-05-25T04:56:57.120Z,17.27
2019-05-25T04:59:27.739Z,16.27
2019-05-25T05:01:58.390Z,14.93
2019-05-25T05:04:29.133Z,14.63
2019-05-25T05:06:59.648Z,17.40
2019-05-25T05:09:30.193Z,15.70
2019-05-25T05:12:01.526Z,16.40
2019-05-25T05:16:59.442Z,17.37
2019-05-25T05:19:29.151Z,13.93
2019-05-25T05:21:59.963Z,17.23
2019-05-25T05:24:28.179Z,16.33
2019-05-25T05:26:58.921Z,20.00
2019-05-25T05:29:29.718Z,18.57
2019-05-25T05:32:00.531Z,33.77
2019-05-25T05:34:31.488Z,33.73
2019-05-25T05:37:03.256Z,17.87
2019-05-25T05:39:34.206Z,19.77
2019-05-25T05:42:06.192Z,17.00
2019-05-25T05:44:39.043Z,15.90
2019-05-25T05:47:10.675Z,15.77
2019-05-25T05:52:12.803Z,17.20
2019-05-25T05:54:41.059Z,12.77
2019-05-25T05:57:12.998Z,17.70
2019-05-25T06:02:13.684Z,12.33
2019-05-25T06:05:03.841Z,13.97
2019-05-25T06:07:35.023Z,15.33
2019-05-25T06:10:08.258Z,14.40
2019-05-25T06:12:39.201Z,15.13
2019-05-25T06:15:10.368Z,11.60
2019-05-25T06:17:41.166Z,22.03
2019-05-25T06:20:12.139Z,11.07
2019-05-25T06:22:42.849Z,14.03
2019-05-25T06:25:13.847Z,11.50
2019-05-25T06:27:44.640Z,10.33
2019-05-25T06:30:15.893Z,10.50
2019-05-25T06:32:47.313Z,13.90
2019-05-25T06:35:18.929Z,13.10
2019-05-25T06:37:49.735Z,11.60
2019-05-25T06:40:20.928Z,10.33
2019-05-25T06:42:51.637Z,10.13
2019-05-25T06:45:24.106Z,9.77
2019-05-25T06:47:54.948Z,11.43
2019-05-25T06:50:37.754Z,11.73
2019-05-25T06:53:08.852Z,8.63
2019-05-25T06:55:39.943Z,11.43
2019-05-25T06:58:10.646Z,11.63
2019-05-25T07:00:41.278Z,9.23
2019-05-25T07:03:11.928Z,8.50
2019-05-25T07:05:42.667Z,11.03
2019-05-25T07:08:13.365Z,7.53
2019-05-25T07:10:43.969Z,11.03
2019-05-25T07:13:14.607Z,8.53
2019-05-25T07:15:45.398Z,10.30
2019-05-25T07:18:16.039Z,9.47
2019-05-25T07:20:46.711Z,9.40
2019-05-25T07:23:17.508Z,9.33
2019-05-25T07:25:48.289Z,13.50
2019-05-25T07:28:18.833Z,11.57
2019-05-25T07:30:49.453Z,12.17
2019-05-25T07:33:20.129Z,10.90
2019-05-25T07:35:50.906Z,13.40
2019-05-25T07:38:21.918Z,11.60
2019-05-25T07:40:52.547Z,19.50
2019-05-25T07:43:23.459Z,10.30
2019-05-25T07:45:54.190Z,9.93
2019-05-25T07:50:51.919Z,10.63
2019-05-25T07:53:21.447Z,9.80
2019-05-25T07:55:52.099Z,9.57
2019-05-25T07:58:22.758Z,10.57
2019-05-25T08:00:53.461Z,9.23
2019-05-25T08:03:24.239Z,11.07
2019-05-25T08:05:54.962Z,12.43
2019-05-25T08:08:25.719Z,8.53
2019-05-25T08:10:56.347Z,8.13
2019-05-25T08:13:27.117Z,8.90
2019-05-25T08:15:56.728Z,8.40
2019-05-25T08:18:27.331Z,7.80
2019-05-25T08:20:55.552Z,7.30
2019-05-25T08:23:26.353Z,7.17
2019-05-25T08:28:32.859Z,9.45
2019-05-25T08:31:01.375Z,7.37
2019-05-25T08:33:31.806Z,8.83
2019-05-25T08:36:02.690Z,9.80
2019-05-25T08:38:33.300Z,9.47
2019-05-25T08:41:04.011Z,8.33
2019-05-25T08:43:34.001Z,8.60
2019-05-25T08:46:04.610Z,10.93
2019-05-25T08:51:04.901Z,7.50
2019-05-25T08:53:41.054Z,8.53
2019-05-25T08:56:05.837Z,9.60
2019-05-25T08:58:48.138Z,8.63
2019-05-25T09:01:28.061Z,8.87
2019-05-25T09:03:58.772Z,9.37
2019-05-25T09:06:26.471Z,7.10
2019-05-25T09:08:59.725Z,8.37
2019-05-25T09:11:28.177Z,9.17
2019-05-25T09:13:58.823Z,10.07
2019-05-25T09:16:29.487Z,6.70
2019-05-25T09:19:00.127Z,7.03
2019-05-25T09:21:30.894Z,14.13
2019-05-25T09:24:01.599Z,8.00
2019-05-25T09:26:32.335Z,8.57
2019-05-25T09:31:33.048Z,10.47
2019-05-25T09:34:02.649Z,7.20
2019-05-25T09:36:33.434Z,7.60
2019-05-25T09:39:01.662Z,7.90
2019-05-25T09:41:32.398Z,8.00
2019-05-25T09:44:00.562Z,7.47
2019-05-25T09:46:31.287Z,8.30
2019-05-25T09:51:29.222Z,7.03
2019-05-25T09:53:58.736Z,15.33
2019-05-25T09:56:29.636Z,9.10
2019-05-25T09:58:57.937Z,7.07
2019-05-25T10:01:28.797Z,7.67
2019-05-25T10:03:59.480Z,6.03
2019-05-25T10:06:30.163Z,6.93
2019-05-25T10:09:00.910Z,14.70
2019-05-25T10:14:01.309Z,6.77
2019-05-25T10:18:59.283Z,7.30
2019-05-25T10:21:28.852Z,6.90
2019-05-25T10:23:59.649Z,6.57
2019-05-25T10:28:57.837Z,7.97
2019-05-25T10:31:27.510Z,11.10
2019-05-25T10:33:58.148Z,9.47
2019-05-25T10:38:56.083Z,7.77
2019-05-25T10:44:44.390Z,18.43
2019-05-25T10:47:14.959Z,14.23
2019-05-25T11:02:36.198Z,7.00
2019-05-25T11:05:08.529Z,9.30
2019-05-25T11:07:39.358Z,22.10
2019-05-25T11:10:11.659Z,16.83
2019-05-25T11:12:42.408Z,10.63
2019-05-25T11:15:13.549Z,9.58
2019-05-25T11:53:19.714Z,7.03
2019-05-25T11:55:49.986Z,7.00
2019-05-25T11:58:20.232Z,8.43
2019-05-25T12:01:09.525Z,7.80
2019-05-25T12:03:39.804Z,6.10
2019-05-25T12:06:10.067Z,7.73
2019-05-25T12:11:31.444Z,7.30
2019-05-25T12:14:05.116Z,6.47
2019-05-25T12:16:38.838Z,6.00
2019-05-25T12:19:09.774Z,6.97
2019-05-25T12:21:40.620Z,7.63
2019-05-25T12:24:11.421Z,6.83
2019-05-25T12:26:42.229Z,7.10
2019-05-25T12:29:13.319Z,5.50
2019-05-25T12:31:44.108Z,6.63
2019-05-25T12:34:14.918Z,15.40
2019-05-25T12:36:45.843Z,6.57
2019-05-25T12:39:19.640Z,5.43
2019-05-25T12:41:50.413Z,10.27
2019-05-25T12:44:21.019Z,7.60
2019-05-25T12:46:51.794Z,8.27
2019-05-25T12:49:22.657Z,7.30
2019-05-25T12:51:53.420Z,7.83
2019-05-25T12:54:24.825Z,5.37
2019-05-25T12:56:55.608Z,4.57
2019-05-25T12:59:26.436Z,5.00
2019-05-25T13:02:01.544Z,6.77
2019-05-25T13:04:33.648Z,7.63
2019-05-25T13:07:04.643Z,5.57
2019-05-25T13:09:35.590Z,6.70
2019-05-25T13:12:06.929Z,6.83
2019-05-25T13:14:37.749Z,7.23
2019-05-25T13:17:08.598Z,5.57
2019-05-25T13:19:39.514Z,11.57
2019-05-25T13:22:10.429Z,5.73
2019-05-25T13:24:41.265Z,5.03
2019-05-25T13:27:12.126Z,5.70
2019-05-25T13:29:43.138Z,8.10
2019-05-25T13:32:14.098Z,7.67
2019-05-25T13:34:45.585Z,5.40
2019-05-25T13:37:17.839Z,6.40
2019-05-25T13:39:48.959Z,10.30
2019-05-25T13:42:19.963Z,7.37
2019-05-25T13:44:50.903Z,5.60
2019-05-25T13:47:22.283Z,7.97
2019-05-25T13:49:54.938Z,6.17
2019-05-25T13:52:25.680Z,4.40
2019-05-25T13:54:56.557Z,5.03
2019-05-25T13:57:27.330Z,7.33
2019-05-25T13:59:58.248Z,7.73
2019-05-25T14:02:29.148Z,5.13
2019-05-25T14:05:00.097Z,8.57
2019-05-25T14:07:32.759Z,6.03
2019-05-25T14:10:04.948Z,7.77
2019-05-25T14:12:38.933Z,6.77
2019-05-25T14:15:10.678Z,6.90
2019-05-25T14:17:41.583Z,8.10
2019-05-25T14:20:13.414Z,20.50
2019-05-25T14:22:44.146Z,17.17
2019-05-25T14:25:15.444Z,9.70
2019-05-25T14:27:46.450Z,10.47
2019-05-25T14:30:19.283Z,11.13
2019-05-25T14:32:49.968Z,13.30
2019-05-25T14:35:20.983Z,8.93
2019-05-25T14:37:51.871Z,11.40
2019-05-25T14:40:22.914Z,13.47
2019-05-25T14:42:53.658Z,13.80
2019-05-25T14:45:24.545Z,14.73
2019-05-25T14:47:55.509Z,14.53
2019-05-25T14:50:26.483Z,9.70
2019-05-25T14:52:57.334Z,9.60
2019-05-25T14:55:28.208Z,9.10
2019-05-25T14:57:59.132Z,13.63
2019-05-25T15:00:30.039Z,5.50
2019-05-25T15:03:01.118Z,7.30
2019-05-25T15:05:32.044Z,10.67
2019-05-25T15:08:03.062Z,6.80
2019-05-25T15:10:37.010Z,7.10
2019-05-25T15:13:08.068Z,5.80
2019-05-25T15:15:38.971Z,7.73
2019-05-25T15:18:11.099Z,7.77
2019-05-25T15:20:42.579Z,7.07
2019-05-25T15:23:13.798Z,8.23
2019-05-25T15:25:44.483Z,7.07
2019-05-25T15:28:15.367Z,5.97
2019-05-25T15:30:46.071Z,9.83
2019-05-25T15:33:16.893Z,9.23
2019-05-25T15:35:47.630Z,9.30
2019-05-25T15:38:18.544Z,7.37
2019-05-25T15:40:49.164Z,8.67
2019-05-25T15:43:19.822Z,7.40
2019-05-25T15:45:50.746Z,6.67
2019-05-25T15:48:21.767Z,6.90
2019-05-25T15:50:53.147Z,8.17
2019-05-25T15:53:23.874Z,8.03
2019-05-25T15:55:54.759Z,8.93
2019-05-25T15:58:25.779Z,9.77
2019-05-25T16:00:56.547Z,8.83
2019-05-25T16:03:27.449Z,6.83
2019-05-25T16:05:58.157Z,7.33
2019-05-25T16:08:28.859Z,9.07
2019-05-25T16:10:59.388Z,8.57
2019-05-25T16:13:30.129Z,10.23
2019-05-25T16:16:00.817Z,8.33
2019-05-25T16:18:31.440Z,9.07
2019-05-25T16:21:02.143Z,7.70
2019-05-25T16:23:32.823Z,6.83
2019-05-25T16:26:03.699Z,8.07
2019-05-25T16:28:34.583Z,8.40
2019-05-25T16:31:05.283Z,6.83
2019-05-25T16:33:35.869Z,8.30
2019-05-25T16:36:06.725Z,10.03
2019-05-25T16:38:37.449Z,5.07
2019-05-25T16:41:08.234Z,11.70
2019-05-25T16:43:38.989Z,7.00
2019-05-25T16:46:09.799Z,4.80
2019-05-25T16:48:41.042Z,8.20
2019-05-25T16:51:11.668Z,8.10
2019-05-25T16:53:42.316Z,6.33
2019-05-25T16:56:13.147Z,8.43
2019-05-25T16:58:43.836Z,19.37
2019-05-25T17:01:17.857Z,9.87
2019-05-25T17:03:47.049Z,7.77
2019-05-25T17:06:17.690Z,9.23
2019-05-25T17:08:48.449Z,6.90
2019-05-25T17:11:19.113Z,9.40
2019-05-25T17:13:49.723Z,8.57
2019-05-25T17:16:20.479Z,9.83
2019-05-25T17:18:51.200Z,10.33
2019-05-25T17:21:22.041Z,8.47
2019-05-25T17:23:52.844Z,10.57
2019-05-25T17:26:25.015Z,11.33
2019-05-25T17:28:56.087Z,10.97
2019-05-25T17:31:26.860Z,8.50
2019-05-25T17:33:58.109Z,10.00
2019-05-25T17:36:29.012Z,7.43
2019-05-25T17:38:59.807Z,5.50
2019-05-25T17:41:30.662Z,10.13
2019-05-25T17:44:01.489Z,11.13
2019-05-25T17:46:32.157Z,9.17
2019-05-25T17:49:03.460Z,8.47
2019-05-25T17:51:34.219Z,6.97
2019-05-25T17:54:06.092Z,7.50
2019-05-25T17:56:37.587Z,6.47
2019-05-25T17:59:08.373Z,8.50
2019-05-25T18:01:40.228Z,6.37
2019-05-25T18:04:10.931Z,8.20
2019-05-25T18:06:41.993Z,9.37
2019-05-25T18:09:13.092Z,10.23
2019-05-25T18:11:43.949Z,9.13
2019-05-25T18:14:14.707Z,10.20
2019-05-25T18:16:46.583Z,11.97
2019-05-25T18:19:18.289Z,11.53
2019-05-25T18:21:53.938Z,9.90
2019-05-25T18:24:24.766Z,10.27
2019-05-25T18:26:57.629Z,11.17
2019-05-25T18:29:28.544Z,11.47
2019-05-25T18:32:01.484Z,13.57
2019-05-25T18:34:32.656Z,9.93
2019-05-25T18:37:03.671Z,9.57
2019-05-25T18:39:34.757Z,9.50
2019-05-25T18:42:05.668Z,13.50
2019-05-25T18:44:37.884Z,18.47
2019-05-25T18:47:08.749Z,11.53
2019-05-25T18:49:39.633Z,11.23
2019-05-25T18:52:10.611Z,16.87
2019-05-25T18:54:42.061Z,15.60
2019-05-25T18:57:14.219Z,12.13
2019-05-25T18:59:46.588Z,10.80
2019-05-25T19:02:19.802Z,13.60
2019-05-25T19:04:59.583Z,9.93
2019-05-25T19:07:25.164Z,8.10
2019-05-25T19:09:56.259Z,8.83
2019-05-25T19:12:27.308Z,11.23
2019-05-25T19:14:58.220Z,8.40
2019-05-25T19:17:30.258Z,9.83
2019-05-25T19:20:01.303Z,7.70
2019-05-25T19:22:32.223Z,7.43
2019-05-25T19:25:06.194Z,7.50
2019-05-25T19:27:37.184Z,7.40
2019-05-25T19:30:13.574Z,8.43
2019-05-25T19:32:47.734Z,9.93
2019-05-25T19:35:18.660Z,9.30
2019-05-25T19:37:49.619Z,5.73
2019-05-25T19:40:21.244Z,7.03
2019-05-25T19:42:54.398Z,7.17
2019-05-25T19:45:25.593Z,8.07
2019-05-25T19:47:57.496Z,9.83
2019-05-25T19:50:28.425Z,8.50
2019-05-25T19:53:02.567Z,9.40
2019-05-25T19:55:33.504Z,8.03
2019-05-25T19:58:05.503Z,7.73
2019-05-25T20:00:36.638Z,7.87
2019-05-25T20:03:07.588Z,12.67
2019-05-25T20:06:42.708Z,80.73
2019-05-25T20:09:16.258Z,101.13
2019-05-25T20:11:47.395Z,74.53
2019-05-25T20:14:18.294Z,32.87
2019-05-25T20:16:50.331Z,22.53
2019-05-25T20:19:21.113Z,14.17
2019-05-25T20:21:53.002Z,17.70
2019-05-25T20:24:23.886Z,12.60
2019-05-25T20:27:01.873Z,12.00
2019-05-25T20:29:32.925Z,13.33
2019-05-25T20:32:03.968Z,13.03
2019-05-25T20:34:35.829Z,13.72
2019-05-25T20:37:10.738Z,14.00
2019-05-25T20:39:45.668Z,14.47
2019-05-25T20:42:17.621Z,13.37
2019-05-25T20:44:48.677Z,11.47
2019-05-25T20:47:19.396Z,11.97
2019-05-25T20:49:51.170Z,10.30
2019-05-25T20:52:21.982Z,12.40
2019-05-25T20:54:53.693Z,14.17
2019-05-25T20:57:26.073Z,9.00
2019-05-25T20:59:56.698Z,11.10
2019-05-25T21:02:27.452Z,12.40
2019-05-25T21:04:58.146Z,15.63
2019-05-25T21:07:28.931Z,12.83
2019-05-25T21:09:59.637Z,13.53
2019-05-25T21:12:30.505Z,18.57
2019-05-25T21:15:01.228Z,17.77
2019-05-25T21:17:32.083Z,18.10
2019-05-25T21:20:02.802Z,14.17
2019-05-25T21:22:33.488Z,12.87
2019-05-25T21:25:05.770Z,17.33
2019-05-25T21:27:36.648Z,15.80
2019-05-25T21:30:09.312Z,15.90
2019-05-25T21:32:40.060Z,16.00
2019-05-25T21:35:11.048Z,19.57
2019-05-25T21:37:41.752Z,16.17
2019-05-25T21:41:02.995Z,16.40
